createdAt,value
2018-06-02T00:00:25.820Z,97783.13
2018-06-02T00:02:56.827Z,97777.55
2018-06-02T00:05:27.835Z,97784.03
2018-06-02T00:07:58.851Z,97778.91
2018-06-02T00:10:29.862Z,97776.95
2018-06-02T00:13:00.859Z,97781.22
2018-06-02T00:15:31.910Z,97775.45
2018-06-02T00:18:02.924Z,97783.66
2018-06-02T00:20:33.940Z,97779.64
2018-06-02T00:23:04.938Z,97783.28
2018-06-02T00:25:35.950Z,97780.91
2018-06-02T00:28:07.030Z,97782.41
2018-06-02T00:30:38.073Z,97781.34
2018-06-02T00:33:09.123Z,97787.81
2018-06-02T00:35:40.105Z,97786.20
2018-06-02T00:38:11.153Z,97785.62
2018-06-02T00:40:42.240Z,97776.31
2018-06-02T00:43:13.272Z,97775.31
2018-06-02T00:45:44.311Z,97762.51
2018-06-02T00:48:15.310Z,97769.14
2018-06-02T00:50:46.357Z,97768.45
2018-06-02T00:53:17.335Z,97771.19
2018-06-02T00:55:48.343Z,97772.05
2018-06-02T00:58:20.172Z,97769.47
2018-06-02T01:00:51.191Z,97770.27
2018-06-02T01:03:22.247Z,97766.49
2018-06-02T01:05:53.325Z,97768.14
2018-06-02T01:08:24.385Z,97760.63
2018-06-02T01:10:55.391Z,97762.36
2018-06-02T01:13:26.437Z,97763.16
2018-06-02T01:15:57.455Z,97759.68
2018-06-02T01:18:28.478Z,97758.95
2018-06-02T01:20:59.484Z,97760.95
2018-06-02T01:23:30.495Z,97763.54
2018-06-02T01:26:01.532Z,97751.48
2018-06-02T01:28:32.501Z,97761.30
2018-06-02T01:31:03.546Z,97756.70
2018-06-02T01:33:34.552Z,97760.38
2018-06-02T01:36:05.592Z,97760.12
2018-06-02T01:38:36.581Z,97757.12
2018-06-02T01:41:07.578Z,97764.94
2018-06-02T01:43:38.576Z,97762.64
2018-06-02T01:46:09.641Z,97756.34
2018-06-02T01:48:40.669Z,97755.64
2018-06-02T01:51:11.699Z,97760.50
2018-06-02T01:53:42.652Z,97751.28
2018-06-02T01:56:13.637Z,97757.52
2018-06-02T01:58:44.682Z,97759.33
2018-06-02T02:01:15.698Z,97750.78
2018-06-02T02:03:46.734Z,97753.43
2018-06-02T02:06:17.730Z,97752.86
2018-06-02T02:08:48.788Z,97753.84
2018-06-02T02:11:19.908Z,97750.13
2018-06-02T02:13:50.956Z,97752.30
2018-06-02T02:16:21.958Z,97748.14
2018-06-02T02:18:53.031Z,97753.45
2018-06-02T02:21:24.074Z,97748.33
2018-06-02T02:23:55.069Z,97742.77
2018-06-02T02:26:26.113Z,97737.98
2018-06-02T02:28:57.134Z,97744.20
2018-06-02T02:31:28.167Z,97748.16
2018-06-02T02:33:59.221Z,97750.77
2018-06-02T02:36:30.279Z,97742.22
2018-06-02T02:39:01.302Z,97746.58
2018-06-02T02:41:32.342Z,97750.38
2018-06-02T02:44:03.404Z,97745.50
2018-06-02T02:46:35.012Z,97746.47
2018-06-02T02:49:06.036Z,97744.63
2018-06-02T02:51:37.065Z,97756.80
2018-06-02T02:54:08.073Z,97755.27
2018-06-02T02:56:39.057Z,97755.56
2018-06-02T02:59:10.074Z,97757.50
2018-06-02T03:01:41.082Z,97757.43
2018-06-02T03:04:12.126Z,97762.98
2018-06-02T03:06:43.155Z,97771.88
2018-06-02T03:09:14.208Z,97773.92
2018-06-02T03:11:52.240Z,97767.32
2018-06-02T03:14:23.232Z,97769.63
2018-06-02T03:16:54.253Z,97769.59
2018-06-02T03:19:25.248Z,97763.66
2018-06-02T03:21:56.236Z,97774.58
2018-06-02T03:24:27.285Z,97772.16
2018-06-02T03:26:58.306Z,97775.48
2018-06-02T03:29:29.452Z,97781.70
2018-06-02T03:32:00.486Z,97787.94
2018-06-02T03:34:31.494Z,97794.80
2018-06-02T03:37:02.511Z,97795.95
2018-06-02T03:39:33.530Z,97793.70
2018-06-02T03:42:04.530Z,97796.23
2018-06-02T03:44:35.552Z,97799.45
2018-06-02T03:47:06.568Z,97798.73
2018-06-02T03:49:37.561Z,97798.27
2018-06-02T03:52:08.555Z,97797.00
2018-06-02T03:54:39.584Z,97802.12
2018-06-02T03:57:10.560Z,97805.66
2018-06-02T03:59:41.608Z,97813.52
2018-06-02T04:02:12.659Z,97819.66
2018-06-02T04:04:43.668Z,97822.19
2018-06-02T04:07:14.699Z,97825.66
2018-06-02T04:09:45.680Z,97827.78
2018-06-02T04:12:16.704Z,97832.91
2018-06-02T04:14:47.720Z,97839.96
2018-06-02T04:17:18.728Z,97838.77
2018-06-02T04:19:49.746Z,97835.98
2018-06-02T04:22:20.816Z,97834.25
2018-06-02T04:24:51.806Z,97841.79
2018-06-02T04:27:22.822Z,97842.95
2018-06-02T04:29:53.810Z,97843.11
2018-06-02T04:32:24.873Z,97845.02
2018-06-02T04:34:55.843Z,97838.66
2018-06-02T04:37:27.032Z,97839.17
2018-06-02T04:39:58.035Z,97835.72
2018-06-02T04:42:29.073Z,97827.43
2018-06-02T04:45:00.035Z,97835.03
2018-06-02T04:47:31.042Z,97836.48
2018-06-02T04:50:02.115Z,97840.69
2018-06-02T04:52:33.110Z,97841.28
2018-06-02T04:55:04.123Z,97840.03
2018-06-02T04:57:35.156Z,97841.63
2018-06-02T05:00:06.290Z,97837.84
2018-06-02T05:02:37.325Z,97845.28
2018-06-02T05:05:08.300Z,97842.17
2018-06-02T05:07:39.340Z,97847.31
2018-06-02T05:10:10.292Z,97844.81
2018-06-02T05:12:41.324Z,97843.41
2018-06-02T05:15:12.404Z,97840.06
2018-06-02T05:17:43.422Z,97840.16
2018-06-02T05:20:14.408Z,97852.71
2018-06-02T05:22:45.397Z,97848.70
2018-06-02T05:25:16.453Z,97860.02
2018-06-02T05:27:47.425Z,97855.74
2018-06-02T05:30:18.434Z,97854.36
2018-06-02T05:32:49.424Z,97858.50
2018-06-02T05:35:20.433Z,97867.20
2018-06-02T05:37:51.450Z,97859.33
2018-06-02T05:40:22.439Z,97855.80
2018-06-02T05:42:53.502Z,97855.81
2018-06-02T05:45:24.509Z,97856.73
2018-06-02T05:47:55.549Z,97863.12
2018-06-02T05:50:26.596Z,97864.85
2018-06-02T05:52:57.670Z,97849.72
2018-06-02T05:55:28.711Z,97855.92
2018-06-02T05:57:59.710Z,97868.02
2018-06-02T06:00:30.678Z,97854.97
2018-06-02T06:03:01.721Z,97856.06
2018-06-02T06:05:32.736Z,97847.66
2018-06-02T06:08:03.726Z,97855.48
2018-06-02T06:10:34.780Z,97855.34
2018-06-02T06:13:05.787Z,97849.44
2018-06-02T06:15:36.804Z,97848.07
2018-06-02T06:18:07.787Z,97851.30
2018-06-02T06:20:38.848Z,97847.61
2018-06-02T06:23:09.852Z,97854.56
2018-06-02T06:25:40.915Z,97848.26
2018-06-02T06:28:11.899Z,97847.85
2018-06-02T06:30:42.967Z,97845.86
2018-06-02T06:33:14.036Z,97853.73
2018-06-02T06:35:45.070Z,97847.86
2018-06-02T06:38:16.049Z,97840.28
2018-06-02T06:40:47.082Z,97849.05
2018-06-02T06:43:18.064Z,97851.72
2018-06-02T06:45:49.062Z,97847.75
2018-06-02T06:48:20.134Z,97850.09
2018-06-02T06:50:51.143Z,97845.94
2018-06-02T06:53:22.166Z,97840.80
2018-06-02T06:55:53.384Z,97836.91
2018-06-02T06:58:24.424Z,97832.67
2018-06-02T07:00:55.454Z,97842.34
2018-06-02T07:03:26.544Z,97832.80
2018-06-02T07:05:57.571Z,97830.66
2018-06-02T07:08:28.591Z,97830.23
2018-06-02T07:10:59.600Z,97821.02
2018-06-02T07:13:30.554Z,97816.47
2018-06-02T07:16:01.582Z,97807.77
2018-06-02T07:18:32.610Z,97806.37
2018-06-02T07:21:03.650Z,97807.52
2018-06-02T07:23:34.648Z,97816.73
2018-06-02T07:26:05.673Z,97820.36
2018-06-02T07:28:36.642Z,97811.00
2018-06-02T07:31:07.632Z,97811.75
2018-06-02T07:33:38.640Z,97817.05
2018-06-02T07:36:09.724Z,97815.27
2018-06-02T07:38:40.708Z,97813.05
2018-06-02T07:41:11.701Z,97815.06
2018-06-02T07:43:42.718Z,97810.16
2018-06-02T07:46:13.777Z,97815.20
2018-06-02T07:48:44.777Z,97806.80
2018-06-02T07:51:15.813Z,97813.37
2018-06-02T07:53:46.906Z,97814.85
2018-06-02T07:56:17.903Z,97808.77
2018-06-02T07:58:48.931Z,97808.39
2018-06-02T08:01:19.914Z,97810.47
2018-06-02T08:03:50.938Z,97816.09
2018-06-02T08:06:21.987Z,97809.66
2018-06-02T08:08:53.034Z,97814.31
2018-06-02T08:11:24.070Z,97822.84
2018-06-02T08:13:55.037Z,97821.68
2018-06-02T08:16:26.041Z,97827.02
2018-06-02T08:18:57.062Z,97812.67
2018-06-02T08:21:28.073Z,97804.55
2018-06-02T08:23:59.070Z,97799.52
2018-06-02T08:26:30.076Z,97806.43
2018-06-02T08:29:01.146Z,97805.89
2018-06-02T08:31:32.222Z,97805.36
2018-06-02T08:34:03.230Z,97799.03
2018-06-02T08:36:34.209Z,97802.26
2018-06-02T08:39:05.301Z,97801.83
2018-06-02T08:41:36.312Z,97803.91
2018-06-02T08:44:07.422Z,97798.92
2018-06-02T08:46:38.459Z,97790.94
2018-06-02T08:49:09.425Z,97791.66
2018-06-02T08:51:40.628Z,97793.80
2018-06-02T08:54:11.621Z,97787.86
2018-06-02T08:56:42.635Z,97792.95
2018-06-02T08:59:13.648Z,97786.94
2018-06-02T09:01:44.696Z,97792.05
2018-06-02T09:04:15.761Z,97788.20
2018-06-02T09:06:46.775Z,97789.58
2018-06-02T09:09:17.842Z,97781.11
2018-06-02T09:11:48.826Z,97787.06
2018-06-02T09:14:19.885Z,97786.70
2018-06-02T09:16:50.881Z,97794.39
2018-06-02T09:19:21.903Z,97791.31
2018-06-02T09:21:52.966Z,97790.95
2018-06-02T09:24:23.971Z,97785.94
2018-06-02T09:26:55.023Z,97794.53
2018-06-02T09:29:26.053Z,97784.69
2018-06-02T09:31:57.139Z,97790.83
2018-06-02T09:34:28.201Z,97785.29
2018-06-02T09:36:59.254Z,97790.20
2018-06-02T09:39:30.265Z,97792.14
2018-06-02T09:42:04.088Z,97793.47
2018-06-02T09:44:35.062Z,97797.67
2018-06-02T09:47:06.077Z,97794.44
2018-06-02T09:49:37.074Z,97794.40
2018-06-02T09:52:08.108Z,97785.16
2018-06-02T09:54:39.115Z,97778.98
2018-06-02T09:57:10.122Z,97779.89
2018-06-02T09:59:41.115Z,97778.44
2018-06-02T10:02:12.156Z,97776.52
2018-06-02T10:04:43.250Z,97777.13
2018-06-02T10:07:14.245Z,97774.29
2018-06-02T10:09:45.302Z,97766.63
2018-06-02T10:12:16.369Z,97765.97
2018-06-02T10:14:47.357Z,97765.10
2018-06-02T10:17:18.387Z,97767.12
2018-06-02T10:19:49.490Z,97763.36
2018-06-02T10:22:20.504Z,97767.45
2018-06-02T10:24:51.511Z,97763.30
2018-06-02T10:27:22.572Z,97760.12
2018-06-02T10:30:00.652Z,97758.48
2018-06-02T10:32:31.685Z,97759.95
2018-06-02T10:35:02.843Z,97759.09
2018-06-02T10:37:33.894Z,97752.05
2018-06-02T10:40:04.988Z,97757.65
2018-06-02T10:42:36.124Z,97756.23
2018-06-02T10:45:07.168Z,97751.37
2018-06-02T10:47:38.190Z,97757.88
2018-06-02T10:50:09.222Z,97757.98
2018-06-02T10:52:40.265Z,97754.64
2018-06-02T10:55:11.252Z,97748.03
2018-06-02T10:57:42.316Z,97748.16
2018-06-02T11:00:13.344Z,97760.08
2018-06-02T11:02:44.356Z,97745.65
2018-06-02T11:05:15.347Z,97747.30
2018-06-02T11:07:46.364Z,97736.45
2018-06-02T11:10:17.372Z,97735.00
2018-06-02T11:12:48.384Z,97736.52
2018-06-02T11:15:19.365Z,97741.00
2018-06-02T11:17:50.390Z,97738.54
2018-06-02T11:20:21.454Z,97740.74
2018-06-02T11:22:52.495Z,97732.61
2018-06-02T11:25:23.524Z,97732.91
2018-06-02T11:27:54.590Z,97736.11
2018-06-02T11:30:25.580Z,97732.16
2018-06-02T11:32:56.584Z,97732.95
2018-06-02T11:35:27.551Z,97726.27
2018-06-02T11:37:58.548Z,97723.09
2018-06-02T11:40:29.574Z,97724.89
2018-06-02T11:43:00.607Z,97723.16
2018-06-02T11:45:31.676Z,97713.01
2018-06-02T11:48:02.707Z,97716.16
2018-06-02T11:50:33.732Z,97710.23
2018-06-02T11:53:04.785Z,97718.99
2018-06-02T11:55:35.755Z,97716.19
2018-06-02T11:58:06.780Z,97707.11
2018-06-02T12:00:37.761Z,97706.97
2018-06-02T12:03:08.751Z,97699.58
2018-06-02T12:05:39.784Z,97699.88
2018-06-02T12:08:10.802Z,97694.51
2018-06-02T12:10:41.806Z,97697.91
2018-06-02T12:13:12.831Z,97689.89
2018-06-02T12:15:43.855Z,97687.31
2018-06-02T12:18:14.925Z,97683.98
2018-06-02T12:20:45.968Z,97684.43
2018-06-02T12:23:17.057Z,97674.66
2018-06-02T12:25:48.078Z,97666.53
2018-06-02T12:28:19.764Z,97670.80
2018-06-02T12:30:50.716Z,97672.41
2018-06-02T12:33:21.796Z,97672.11
2018-06-02T12:35:52.862Z,97672.69
2018-06-02T12:38:23.909Z,97666.59
2018-06-02T12:40:54.920Z,97658.62
2018-06-02T12:43:25.912Z,97660.52
2018-06-02T12:45:56.917Z,97661.91
2018-06-02T12:48:28.040Z,97663.81
2018-06-02T12:50:59.029Z,97652.48
2018-06-02T12:53:30.067Z,97652.13
2018-06-02T12:56:01.069Z,97651.27
2018-06-02T12:58:32.130Z,97648.56
2018-06-02T13:01:03.125Z,97646.84
2018-06-02T13:03:34.192Z,97641.33
2018-06-02T13:06:05.254Z,97640.41
2018-06-02T13:08:36.255Z,97634.16
2018-06-02T13:11:10.044Z,97629.66
2018-06-02T13:13:41.049Z,97635.32
2018-06-02T13:16:12.038Z,97627.16
2018-06-02T13:18:43.101Z,97624.06
2018-06-02T13:21:14.139Z,97624.41
2018-06-02T13:23:45.128Z,97612.49
2018-06-02T13:26:16.123Z,97618.95
2018-06-02T13:28:47.137Z,97616.00
2018-06-02T13:34:14.188Z,97603.11
2018-06-02T13:36:45.171Z,97598.35
2018-06-02T13:39:16.185Z,97592.58
2018-06-02T13:41:47.242Z,97594.73
2018-06-02T13:44:18.281Z,97596.49
2018-06-02T13:46:49.333Z,97585.03
2018-06-02T13:49:20.378Z,97587.22
2018-06-02T13:51:51.365Z,97587.61
2018-06-02T13:54:22.393Z,97589.55
2018-06-02T13:56:53.438Z,97576.47
2018-06-02T13:59:24.458Z,97573.71
2018-06-02T14:01:55.474Z,97571.93
2018-06-02T14:04:26.548Z,97570.73
2018-06-02T14:06:57.568Z,97577.11
2018-06-02T14:09:28.596Z,97571.89
2018-06-02T14:11:59.615Z,97568.17
2018-06-02T14:14:30.678Z,97574.19
2018-06-02T14:17:01.744Z,97566.77
2018-06-02T14:19:32.814Z,97569.41
2018-06-02T14:22:03.879Z,97567.77
2018-06-02T14:24:34.872Z,97563.82
2018-06-02T14:27:05.920Z,97557.50
2018-06-02T14:29:36.973Z,97554.50
2018-06-02T14:32:08.022Z,97550.44
2018-06-02T14:34:39.027Z,97555.37
2018-06-02T14:37:10.065Z,97555.91
2018-06-02T14:39:41.065Z,97552.13
2018-06-02T14:42:12.128Z,97550.36
2018-06-02T14:44:43.128Z,97545.05
2018-06-02T14:47:14.200Z,97544.26
2018-06-02T14:49:45.196Z,97539.44
2018-06-02T14:52:16.241Z,97540.70
2018-06-02T14:54:47.243Z,97542.45
2018-06-02T14:57:18.293Z,97545.50
2018-06-02T14:59:49.315Z,97540.02
2018-06-02T15:02:20.367Z,97528.14
2018-06-02T15:04:51.417Z,97538.78
2018-06-02T15:07:22.459Z,97531.28
2018-06-02T15:09:53.534Z,97535.67
2018-06-02T15:12:24.600Z,97527.11
2018-06-02T15:14:55.574Z,97527.50
2018-06-02T15:17:26.609Z,97524.92
2018-06-02T15:19:57.729Z,97524.37
2018-06-02T15:22:28.719Z,97521.98
2018-06-02T15:24:59.918Z,97523.31
2018-06-02T15:27:30.991Z,97523.98
2018-06-02T15:30:02.031Z,97518.45
2018-06-02T15:32:33.123Z,97522.88
2018-06-02T15:35:04.172Z,97526.97
2018-06-02T15:37:35.172Z,97518.05
2018-06-02T15:40:06.208Z,97518.69
2018-06-02T15:42:37.284Z,97513.14
2018-06-02T15:45:08.304Z,97523.22
2018-06-02T15:47:39.301Z,97513.67
2018-06-02T15:50:10.341Z,97513.56
2018-06-02T15:52:41.331Z,97514.75
2018-06-02T15:55:12.361Z,97512.17
2018-06-02T15:57:43.413Z,97507.38
2018-06-02T16:00:14.498Z,97508.34
2018-06-02T16:02:45.569Z,97511.07
2018-06-02T16:05:16.661Z,97509.69
2018-06-02T16:07:47.668Z,97504.95
2018-06-02T16:10:18.726Z,97502.52
2018-06-02T16:12:49.774Z,97503.92
2018-06-02T16:15:20.835Z,97500.19
2018-06-02T16:17:51.882Z,97511.91
2018-06-02T16:20:23.034Z,97513.52
2018-06-02T16:22:54.028Z,97514.49
2018-06-02T16:25:25.065Z,97513.98
2018-06-02T16:27:56.058Z,97515.34
2018-06-02T16:30:27.170Z,97517.85
2018-06-02T16:32:58.190Z,97518.41
2018-06-02T16:35:29.212Z,97529.06
2018-06-02T16:38:00.210Z,97523.20
2018-06-02T16:40:31.200Z,97523.17
2018-06-02T16:43:02.224Z,97521.65
2018-06-02T16:45:33.298Z,97520.36
2018-06-02T16:48:04.378Z,97516.87
2018-06-02T16:50:35.396Z,97520.69
2018-06-02T16:53:06.488Z,97521.83
2018-06-02T16:55:37.561Z,97519.98
2018-06-02T16:58:08.590Z,97524.63
2018-06-02T17:00:39.608Z,97525.12
2018-06-02T17:03:10.613Z,97531.30
2018-06-02T17:05:41.594Z,97527.00
2018-06-02T17:08:12.702Z,97524.86
2018-06-02T17:10:45.930Z,97526.16
2018-06-02T17:13:17.182Z,97522.13
2018-06-02T17:15:48.432Z,97520.34
2018-06-02T17:18:19.570Z,97520.09
2018-06-02T17:20:50.647Z,97521.66
2018-06-02T17:23:21.670Z,97518.19
2018-06-02T17:25:52.661Z,97520.42
2018-06-02T17:28:23.678Z,97525.05
2018-06-02T17:30:54.697Z,97526.46
2018-06-02T17:33:25.763Z,97523.34
2018-06-02T17:35:56.839Z,97527.42
2018-06-02T17:38:27.988Z,97531.09
2018-06-02T17:40:58.967Z,97527.80
2018-06-02T17:43:30.085Z,97526.48
2018-06-02T17:46:01.172Z,97530.78
2018-06-02T17:48:32.212Z,97539.20
2018-06-02T17:51:03.217Z,97540.91
2018-06-02T17:53:34.344Z,97543.19
2018-06-02T17:56:12.471Z,97543.02
2018-06-02T17:58:43.481Z,97542.91
2018-06-02T18:01:14.488Z,97540.63
2018-06-02T18:03:45.509Z,97552.70
2018-06-02T18:06:16.528Z,97557.58
2018-06-02T18:08:47.618Z,97550.75
2018-06-02T18:11:18.690Z,97551.09
2018-06-02T18:13:49.769Z,97549.25
2018-06-02T18:16:20.874Z,97553.80
2018-06-02T18:18:51.983Z,97557.00
2018-06-02T18:21:22.986Z,97558.40
2018-06-02T18:23:54.030Z,97558.23
2018-06-02T18:26:25.109Z,97554.98
2018-06-02T18:28:56.197Z,97552.51
2018-06-02T18:31:27.292Z,97548.85
2018-06-02T18:33:59.110Z,97551.70
2018-06-02T18:36:30.182Z,97553.44
2018-06-02T18:39:01.222Z,97554.84
2018-06-02T18:41:32.286Z,97559.55
2018-06-02T18:44:03.290Z,97560.44
2018-06-02T18:46:34.307Z,97563.58
2018-06-02T18:49:05.320Z,97564.70
2018-06-02T18:51:36.339Z,97569.86
2018-06-02T18:54:07.400Z,97571.56
2018-06-02T18:56:38.435Z,97572.36
2018-06-02T18:59:09.436Z,97572.81
2018-06-02T19:01:40.512Z,97567.70
2018-06-02T19:04:11.496Z,97571.49
2018-06-02T19:06:42.551Z,97576.48
2018-06-02T19:09:13.609Z,97584.77
2018-06-02T19:11:44.641Z,97584.97
2018-06-02T19:14:15.643Z,97586.64
2018-06-02T19:16:46.670Z,97589.62
2018-06-02T19:19:17.639Z,97594.41
2018-06-02T19:21:48.642Z,97602.27
2018-06-02T19:24:19.810Z,97606.45
2018-06-02T19:26:50.808Z,97615.91
2018-06-02T19:29:21.860Z,97622.66
2018-06-02T19:31:52.906Z,97627.55
2018-06-02T19:34:23.885Z,97632.64
2018-06-02T19:36:55.009Z,97636.97
2018-06-02T19:39:25.972Z,97639.47
2018-06-02T19:41:57.005Z,97641.37
2018-06-02T19:44:28.005Z,97641.80
2018-06-02T19:46:59.012Z,97641.73
2018-06-02T19:49:30.056Z,97648.91
2018-06-02T19:52:01.131Z,97654.95
2018-06-02T19:54:32.164Z,97660.00
2018-06-02T19:57:03.220Z,97662.41
2018-06-02T19:59:34.273Z,97661.02
2018-06-02T20:02:05.311Z,97666.90
2018-06-02T20:04:36.301Z,97671.01
2018-06-02T20:07:07.334Z,97674.63
2018-06-02T20:09:38.476Z,97677.27
2018-06-02T20:12:09.571Z,97681.06
2018-06-02T20:14:40.618Z,97684.23
2018-06-02T20:17:11.677Z,97686.42
2018-06-02T20:19:42.673Z,97687.69
2018-06-02T20:22:13.776Z,97688.64
2018-06-02T20:24:44.884Z,97689.03
2018-06-02T20:27:15.883Z,97686.39
2018-06-02T20:29:46.960Z,97693.09
2018-06-02T20:32:18.003Z,97693.84
2018-06-02T20:34:49.076Z,97685.83
2018-06-02T20:37:20.111Z,97682.48
2018-06-02T20:39:51.100Z,97681.09
2018-06-02T20:42:22.219Z,97682.84
2018-06-02T20:44:53.203Z,97684.44
2018-06-02T20:47:24.256Z,97684.59
2018-06-02T20:49:55.383Z,97677.98
2018-06-02T20:52:26.442Z,97684.66
2018-06-02T20:54:57.520Z,97678.52
2018-06-02T20:57:28.550Z,97681.00
2018-06-02T20:59:59.739Z,97683.61
2018-06-02T21:02:30.852Z,97688.34
2018-06-02T21:05:01.873Z,97687.00
2018-06-02T21:07:32.960Z,97688.34
2018-06-02T21:10:04.005Z,97689.05
2018-06-02T21:12:35.165Z,97680.76
2018-06-02T21:15:06.202Z,97678.34
2018-06-02T21:17:37.249Z,97683.34
2018-06-02T21:20:08.283Z,97688.79
2018-06-02T21:22:39.327Z,97689.42
2018-06-02T21:25:10.329Z,97697.03
2018-06-02T21:27:41.488Z,97692.05
2018-06-02T21:30:12.509Z,97691.28
2018-06-02T21:32:43.557Z,97697.31
2018-06-02T21:35:14.648Z,97696.41
2018-06-02T21:37:45.651Z,97697.51
2018-06-02T21:40:16.769Z,97693.01
2018-06-02T21:42:47.804Z,97702.40
2018-06-02T21:45:18.863Z,97692.69
2018-06-02T21:47:49.848Z,97702.89
2018-06-02T21:50:21.029Z,97705.47
2018-06-02T21:52:52.123Z,97702.40
2018-06-02T21:55:23.222Z,97707.92
2018-06-02T21:57:54.261Z,97709.91
2018-06-02T22:00:25.365Z,97714.48
2018-06-02T22:02:56.452Z,97714.72
2018-06-02T22:05:27.492Z,97717.25
2018-06-02T22:07:58.527Z,97715.09
2018-06-02T22:10:29.586Z,97711.98
2018-06-02T22:13:00.665Z,97707.02
2018-06-02T22:15:31.788Z,97712.55
2018-06-02T22:18:02.816Z,97716.33
2018-06-02T22:20:33.843Z,97716.25
2018-06-02T22:23:04.877Z,97715.41
2018-06-02T22:25:35.951Z,97714.87
2018-06-02T22:28:06.957Z,97716.39
2018-06-02T22:30:38.070Z,97718.44
2018-06-02T22:33:09.103Z,97713.95
2018-06-02T22:35:40.201Z,97719.33
2018-06-02T22:38:11.219Z,97715.73
2018-06-02T22:40:42.321Z,97715.97
2018-06-02T22:43:13.383Z,97711.55
2018-06-02T22:45:44.369Z,97703.75
2018-06-02T22:48:15.418Z,97702.50
2018-06-02T22:50:46.508Z,97706.13
2018-06-02T22:53:17.574Z,97713.72
2018-06-02T22:55:48.702Z,97712.33
2018-06-02T22:58:19.779Z,97716.41
2018-06-02T23:00:50.830Z,97710.02
2018-06-02T23:03:21.900Z,97714.99
2018-06-02T23:05:52.968Z,97715.13
2018-06-02T23:08:24.058Z,97716.53
2018-06-02T23:10:55.151Z,97728.25
2018-06-02T23:13:26.190Z,97731.88
2018-06-02T23:15:57.187Z,97730.63
2018-06-02T23:18:28.212Z,97727.06
2018-06-02T23:20:59.219Z,97727.70
2018-06-02T23:23:30.249Z,97725.66
2018-06-02T23:26:01.296Z,97729.59
2018-06-02T23:28:32.310Z,97721.86
2018-06-02T23:31:03.321Z,97732.97
2018-06-02T23:33:34.386Z,97727.58
2018-06-02T23:36:05.413Z,97727.39
2018-06-02T23:38:36.488Z,97728.59
2018-06-02T23:41:07.487Z,97726.45
2018-06-02T23:43:38.597Z,97725.17
2018-06-02T23:46:09.645Z,97728.60
2018-06-02T23:48:40.662Z,97728.05
2018-06-02T23:51:11.845Z,97727.59
2018-06-02T23:53:42.914Z,97725.45
2018-06-02T23:56:14.027Z,97729.65
2018-06-02T23:58:45.092Z,97730.78
